Snow/Ice From: 24-10-2018 05:00 Until: 09:00 warning for: Snow/Ice Level: Yellow info button
suomi:
Liikennesää: Ajokeli muuttuu huonoksi aamulla tienpintojen jäätymisen vuoksi.

svenska:
Trafikvädret: Väglaget blir dåligt på morgonen p.g.a. tillfrysning av vägytor.

english:
Traffic weather warning: Bad road conditions are expected in the morning because of ice-covered roads. 


Thunder radar more information blitzortung!


Löydät sääaseman tiedot myös:

European Weather Network

Finland Weather Exchange

Weather Underground

AWEKAS



Weather Underground säähistoriasivu

Päivittäin yhteenveto Maaliskuu 13, 2017 Yksiköt:  Metriset    Englantilaiset   Molemmat
« Edellinen Päivä
Seuraava Päivä »
Päivittäin Viikoittain Kuukausittain Vuosittain Mukautettu
  Korkea: Matala: Keskiarvo:
Lämpötila: -17.8 °C -0.6 °C 1.6 °C
Kastepiste: -17.8 °C -2 °C -0.4 °C
Kosteus: Humidity % 69 % 87 %
Tuulen nopeus: 0 km/h 0 km/h 6.3 km/h
Tuulenpuuska: 0 km/h - -
Tuuli:- - SSW
Ilmanpaine: 0 hPa 1014.8 hPa -
Sade: 0 mm    
Historical Graphs
 
 
Taulukkotiedot Maaliskuu 13, 2017
Aika Lämpötila Kastepiste Ilmanpaine Tuuli Tuulen nopeus Tuulenpuuska Kosteus Sademäärä (tunneittain)
-17.8 °C -17.8 °C 0 hPa Calm     Humidity % 0 mm
00:00 0.1 °C -0.5 °C 1017.8 hPa SSW 4.8 km/h 9.7 km/h 96 % 0 mm
00:15 0.1 °C -0.5 °C 1018.2 hPa SSW 3.2 km/h 8 km/h 96 % 0 mm
00:30 -0.1 °C -0.6 °C 1018.2 hPa Calm   3.2 km/h 96 % 0 mm
00:45 -0.2 °C -0.7 °C 1018.2 hPa SSW 1.6 km/h 6.4 km/h 96 % 0 mm
01:00 -0.2 °C -0.8 °C 1018.2 hPa SSW 3.2 km/h 8 km/h 96 % 0 mm
01:15 -0.2 °C -0.8 °C 1018.2 hPa Calm   4.8 km/h 96 % 0 mm
01:30 -0.2 °C -0.8 °C 1018.2 hPa Calm   6.4 km/h 96 % 0 mm
01:45 -0.3 °C -0.8 °C 1018.2 hPa Calm   4.8 km/h 96 % 0 mm
02:00 -0.2 °C -0.7 °C 1018.2 hPa SSW 1.6 km/h 8 km/h 96 % 0 mm
02:15 -0.1 °C -0.7 °C 1018.2 hPa SSW 6.4 km/h 12.9 km/h 96 % 0 mm
02:30 -0.2 °C -0.7 °C 1018.5 hPa SSW 6.4 km/h 19.3 km/h 96 % 0 mm
02:45 -0.2 °C -0.8 °C 1018.5 hPa SSW 3.2 km/h 9.7 km/h 96 % 0 mm
03:00 -0.2 °C -0.6 °C 1018.5 hPa SSW 4.8 km/h 9.7 km/h 97 % 0 mm
03:15 -0.2 °C -0.6 °C 1018.5 hPa SSW 3.2 km/h 9.7 km/h 97 % 0 mm
03:30 -0.2 °C -0.6 °C 1018.5 hPa SSW 4.8 km/h 11.3 km/h 97 % 0 mm
03:45 -0.1 °C -0.5 °C 1018.5 hPa SW 3.2 km/h 8 km/h 97 % 0 mm
04:00 -0.1 °C -0.5 °C 1018.5 hPa SSW 4.8 km/h 11.3 km/h 97 % 0 mm
04:15 -0.1 °C -0.5 °C 1018.5 hPa SSW 3.2 km/h 8 km/h 97 % 0 mm
04:30 0 °C -0.4 °C 1018.5 hPa SSW 4.8 km/h 11.3 km/h 97 % 0 mm
04:45 0.1 °C -0.4 °C 1018.5 hPa SSW 3.2 km/h 8 km/h 97 % 0 mm
05:00 0.1 °C -0.4 °C 1018.5 hPa SSW 4.8 km/h 12.9 km/h 97 % 0 mm
05:15 0.1 °C -0.4 °C 1018.5 hPa SSW 4.8 km/h 11.3 km/h 97 % 0 mm
05:30 0 °C -0.4 °C 1018.5 hPa SSW 4.8 km/h 12.9 km/h 97 % 0 mm
05:45 -0.1 °C -0.5 °C 1018.5 hPa SSW 4.8 km/h 11.3 km/h 97 % 0 mm
06:00 -0.2 °C -0.6 °C 1018.5 hPa SSW 3.2 km/h 9.7 km/h 97 % 0 mm
06:15 -0.3 °C -0.7 °C 1018.5 hPa SSW 4.8 km/h 12.9 km/h 97 % 0 mm
06:30 -0.3 °C -0.8 °C 1018.5 hPa SSW 3.2 km/h 9.7 km/h 97 % 0 mm
06:45 -0.4 °C -0.9 °C 1018.5 hPa SSW 4.8 km/h 14.5 km/h 97 % 0 mm
07:00 -0.6 °C -1 °C 1018.8 hPa SSW 6.4 km/h 12.9 km/h 97 % 0 mm
07:15 -0.5 °C -0.9 °C 1018.8 hPa SSW 3.2 km/h 9.7 km/h 97 % 0 mm
07:30 -0.6 °C -1 °C 1018.8 hPa SSW 4.8 km/h 9.7 km/h 97 % 0 mm
07:45 -0.6 °C -1 °C 1018.8 hPa SSW 6.4 km/h 12.9 km/h 97 % 0 mm
08:00 -0.4 °C -0.9 °C 1018.8 hPa SSW 4.8 km/h 11.3 km/h 97 % 0 mm
08:15 -0.4 °C -0.9 °C 1018.8 hPa SSW 4.8 km/h 11.3 km/h 97 % 0 mm
08:30 -0.4 °C -0.7 °C 1018.8 hPa SSW 4.8 km/h 9.7 km/h 98 % 0 mm
08:45 -0.4 °C -0.8 °C 1018.5 hPa SSW 4.8 km/h 11.3 km/h 97 % 0 mm
09:00 -0.3 °C -0.8 °C 1018.5 hPa SSW 4.8 km/h 14.5 km/h 97 % 0 mm
09:15 -0.2 °C -0.5 °C 1018.5 hPa SSW 4.8 km/h 12.9 km/h 98 % 0 mm
09:30 -0.1 °C -0.5 °C 1018.8 hPa SSW 4.8 km/h 11.3 km/h 97 % 0 mm
09:45 0.1 °C -0.2 °C 1018.5 hPa SSW 6.4 km/h 11.3 km/h 98 % 0 mm
10:00 0.2 °C -0.1 °C 1018.5 hPa SSW 6.4 km/h 14.5 km/h 98 % 0 mm
10:15 0.4 °C 0.1 °C 1018.5 hPa SSW 6.4 km/h 14.5 km/h 98 % 0 mm
10:30 0.9 °C 0.6 °C 1018.5 hPa SSW 8 km/h 17.7 km/h 98 % 0 mm
10:45 1.3 °C 1.1 °C 1018.8 hPa SSW 8 km/h 19.3 km/h 98 % 0 mm
11:00 1.7 °C 1.4 °C 1018.5 hPa SSW 6.4 km/h 14.5 km/h 98 % 0 mm
11:15 2.3 °C 2.1 °C 1018.5 hPa SSW 6.4 km/h 17.7 km/h 98 % 0 mm
11:30 3 °C 2.4 °C 1018.5 hPa SSW 8 km/h 19.3 km/h 96 % 0 mm
11:45 3.6 °C 2.5 °C 1018.5 hPa SSW 8 km/h 14.5 km/h 93 % 0 mm
12:00 3.8 °C 2.5 °C 1018.5 hPa SSW 8 km/h 20.9 km/h 91 % 0 mm
12:15 3.9 °C 2.5 °C 1018.5 hPa SSW 6.4 km/h 19.3 km/h 90 % 0 mm
12:30 4.7 °C 2.7 °C 1018.5 hPa SSW 8 km/h 20.9 km/h 87 % 0 mm
12:45 4.5 °C 2.4 °C 1018.5 hPa SSW 6.4 km/h 17.7 km/h 86 % 0 mm
13:00 4.3 °C 2.1 °C 1018.5 hPa SSW 9.7 km/h 20.9 km/h 86 % 0 mm
13:15 4.3 °C 2.2 °C 1018.2 hPa SSW 11.3 km/h 20.9 km/h 86 % 0 mm
13:30 4.3 °C 2 °C 1018.2 hPa SSW 9.7 km/h 17.7 km/h 85 % 0 mm
13:45 3.7 °C 1.8 °C 1018.2 hPa SSW 9.7 km/h 19.3 km/h 87 % 0 mm
14:00 3.6 °C 1.8 °C 1018.2 hPa SSW 9.7 km/h 19.3 km/h 88 % 0 mm
14:15 3.7 °C 1.9 °C 1017.8 hPa SSW 8 km/h 19.3 km/h 88 % 0 mm
14:30 3.8 °C 1.9 °C 1017.8 hPa SSW 6.4 km/h 19.3 km/h 87 % 0 mm
14:45 4 °C 1.9 °C 1017.5 hPa SSW 9.7 km/h 17.7 km/h 86 % 0 mm
15:00 4.5 °C 2.2 °C 1017.2 hPa South 8 km/h 19.3 km/h 85 % 0 mm
15:15 5.1 °C 2.3 °C 1017.2 hPa SSW 9.7 km/h 20.9 km/h 82 % 0 mm
15:30 5.3 °C 1.8 °C 1017.2 hPa SSW 12.9 km/h 24.1 km/h 78 % 0 mm
15:45 5.4 °C 1.3 °C 1016.8 hPa SSW 11.3 km/h 22.5 km/h 75 % 0 mm
16:00 5.4 °C 0.8 °C 1016.8 hPa SSW 11.3 km/h 22.5 km/h 72 % 0 mm
16:15 4.9 °C 0.5 °C 1016.8 hPa SSW 8 km/h 17.7 km/h 73 % 0 mm
16:30 4.9 °C 0.3 °C 1016.8 hPa SSW 8 km/h 22.5 km/h 72 % 0 mm
16:45 4.8 °C -0.2 °C 1016.8 hPa SSW 9.7 km/h 20.9 km/h 70 % 0 mm
17:00 4.6 °C -0.3 °C 1016.8 hPa SSW 9.7 km/h 25.7 km/h 71 % 0 mm
17:15 4.3 °C -0.7 °C 1016.8 hPa SSW 8 km/h 20.9 km/h 70 % 0 mm
17:30 4 °C -1 °C 1016.8 hPa SSW 8 km/h 20.9 km/h 70 % 0 mm
17:45 3.8 °C -1.4 °C 1016.5 hPa SSW 8 km/h 16.1 km/h 69 % 0 mm
18:00 3.7 °C -1.5 °C 1016.5 hPa SSW 6.4 km/h 12.9 km/h 69 % 0 mm
18:15 3.4 °C -1.7 °C 1016.5 hPa SSW 6.4 km/h 16.1 km/h 69 % 0 mm
18:30 3.2 °C -1.9 °C 1016.1 hPa SSW 4.8 km/h 12.9 km/h 69 % 0 mm
18:45 3.2 °C -1.9 °C 1016.5 hPa SSW 8 km/h 14.5 km/h 69 % 0 mm
19:00 3.2 °C -2 °C 1016.1 hPa SSW 6.4 km/h 19.3 km/h 69 % 0 mm
19:15 3.1 °C -1.9 °C 1016.1 hPa SSW 4.8 km/h 12.9 km/h 70 % 0 mm
19:30 3 °C -1.7 °C 1016.1 hPa SSW 8 km/h 16.1 km/h 71 % 0 mm
19:45 2.8 °C -1.7 °C 1016.1 hPa SSW 6.4 km/h 19.3 km/h 72 % 0 mm
20:00 2.8 °C -1.6 °C 1015.8 hPa SSW 8 km/h 16.1 km/h 73 % 0 mm
20:15 2.6 °C -1.4 °C 1015.8 hPa SSW 4.8 km/h 12.9 km/h 75 % 0 mm
20:30 2.5 °C -1.3 °C 1015.8 hPa SSW 6.4 km/h 14.5 km/h 76 % 0 mm
20:45 2.3 °C -1.3 °C 1015.8 hPa SSW 4.8 km/h 14.5 km/h 77 % 0 mm
21:00 2.3 °C -1.3 °C 1015.8 hPa SSW 6.4 km/h 19.3 km/h 77 % 0 mm
21:15 2.3 °C -1.3 °C 1015.8 hPa SSW 8 km/h 12.9 km/h 77 % 0 mm
21:30 2.3 °C -1.2 °C 1015.5 hPa SSW 8 km/h 14.5 km/h 78 % 0 mm
21:45 2.3 °C -1.2 °C 1015.5 hPa SSW 6.4 km/h 19.3 km/h 78 % 0 mm
22:00 2.3 °C -1.2 °C 1015.1 hPa SSW 9.7 km/h 19.3 km/h 78 % 0 mm
22:15 2.2 °C -1.1 °C 1015.1 hPa SSW 8 km/h 20.9 km/h 79 % 0 mm
22:30 2.1 °C -1.2 °C 1015.1 hPa SSW 9.7 km/h 17.7 km/h 79 % 0 mm
22:45 2 °C -1.1 °C 1015.1 hPa SSW 9.7 km/h 22.5 km/h 80 % 0 mm
23:00 1.8 °C -1.3 °C 1015.1 hPa SSW 8 km/h 20.9 km/h 80 % 0 mm
23:15 1.9 °C -1.2 °C 1015.1 hPa SSW 9.7 km/h 25.7 km/h 80 % 0 mm
23:30 1.8 °C -1.3 °C 1015.1 hPa SSW 9.7 km/h 29 km/h 80 % 0 mm
23:45 1.7 °C -1.2 °C 1014.8 hPa SSW 9.7 km/h 22.5 km/h 81 % 0 mm
Esan sääasema
Terveisin Weather Underground - 2.75 mb

Alkuperäinen skripti  Jim McMurry - jmcmurry@mwt.net Sovitettu myös templatelle  Wim van der Kuil - Leuven-Template.eu

Laitteet joita käytämme:

Sääasema
Davis VP2

Sääasemaohjelma
Cumulus

Sääaseman tietokone
Asus EeePC

Palveluntarjoaja
Suncomet

Davis VP2

Cumulus

Asus EeePC

Suncomet